Jacks Cabin, Colorado
Current Conditions -  °F | °C
As of 12:53 AM on Wednesday 26 Nov 2014 (Local Time) from K7BM Reporting Station
Light Snow Light Snow  
Wind Chill: 18°   Ceiling: 1400
Heat Index: 32°   Visibility: 5mi
Dew Point: 19°   Wind: 26mph
Humidity: 60%   Direction: 310°NW
Pressure: 30.12"   Gusts: 43mph
Location:  38.7752°N, 106.586°W
Report Text: K7BM 260753Z AUTO 31023G37KT 270V360 5SM -SN BKN014 OVC036 00/M07 A3012 RMK AO2
Loading
Personal Weather Stations






























Interactive Weather Map New forecast layout! Learn more

10-Day Weather Forecast

Advertisements
Track Severe Weather on mobile